Kezdőlap
METAR-TAF:

METAR-TAF

Repülőterek :

Chișinăui nemzetközi repülőtér

Chișinău, Moldova

földrajzi szélesség: 46-55-40N, földrajzi hosszúság: 028-55-51E, magasság: 122 m

Jelenlegi meteorológiai megfigyelések

A jelentés 10 perccel ezelõtt készült, 08:00 UTC
Északi szél 12 kt
Hőmérséklet 23°C
Páratartalom 50%
Légköri nyomás 1013 hPa
Látótávolság 10 km, vagy több
Kevés felhő 3300 lábon

METAR: LUKK 260800Z 35012KT 9999 FEW033 23/12 Q1013 R26/D NOSIG

Idő: 11:10 (08:10 UTC)

Előrejelzés

A jelentés 2 órával és 50 perccel ezelõtt készült, 05:20 UTC
Az előrejelzés 26-én 06 óra UTC és 27-én 06 óra UTC között érvényes
Észak-északnyugati szél 12 kt
Látótávolság 10 km, vagy több
Szórványos felhőzet 4500 lábon
26-én 17 óra UTC és 26-én 19 óra UTC között fokozatosan kialakuló
Különbözõ irányokból fújó szél 2 kt

TAF: LUKK 260520Z 2606/2706 34012KT 9999 SCT045 BECMG 2617/2619 VRB02KT

Meteorológiai megfigyelések és előrejelzések több, mint 4000 repülőtéren (METAR és TAF jelentéseket).

A térképen piros és sárga pontok jelzik az elérhető meteorológiai állomásokat.

Mozgassa az egeret a pont fölött, hogy megjelenjen az állomás neve.

Azután kattintson az időjárási megfigyelések és előrejelzések megtekintéséhez.

A térkép megváltoztatása: kattintson a fekete keresztel jelölt zöld gombra ráközelítéshez, a vonallal jelölt zöld gombra távolításhoz, vagy a zöld nyilakra a szomszédos térképek eléréséhez.


METAR-TAF: